Time;durP1;ratioP1;P1;durP2;ratioP2;P2;SDS_P1;SDS_P2;PMS_P1;PMS_P2;Temp;Humidity;BMP_temperature;BMP_pressure;BME280_temperature;BME280_humidity;BME280_pressure;Samples;Min_cycle;Max_cycle;Signal;HPM_P1;HPM_P2
2021/03/03 00:00:49;;;;;;;5.60;2.35;;;11.70;61.70;;;;;;5054985;28;20036;-89
2021/03/03 00:03:15;;;;;;;4.15;2.38;;;11.70;61.70;;;;;;5052529;28;20036;-88
2021/03/03 00:05:41;;;;;;;1.70;1.13;;;11.70;61.70;;;;;;5063629;28;20397;-88
2021/03/03 00:08:07;;;;;;;2.90;1.60;;;11.70;61.70;;;;;;5055466;28;20394;-89
2021/03/03 00:10:33;;;;;;;5.55;2.13;;;11.70;62.50;;;;;;5055954;28;20045;-89
2021/03/03 00:13:00;;;;;;;2.67;1.20;;;11.70;61.80;;;;;;5055997;28;20485;-89
2021/03/03 00:15:26;;;;;;;4.55;2.38;;;11.60;61.80;;;;;;5053796;28;20500;-89
2021/03/03 00:17:52;;;;;;;3.28;1.98;;;11.60;61.80;;;;;;5053153;28;20466;-89
2021/03/03 00:20:18;;;;;;;4.25;1.75;;;11.60;61.80;;;;;;5037499;28;20043;-89
2021/03/03 00:22:44;;;;;;;6.55;2.25;;;11.60;61.90;;;;;;5021021;28;20041;-89
2021/03/03 00:25:10;;;;;;;7.70;1.38;;;11.60;62.00;;;;;;5029788;28;20045;-90
2021/03/03 00:27:37;;;;;;;1.83;1.25;;;11.60;62.00;;;;;;5045088;28;20405;-90
2021/03/03 00:30:03;;;;;;;8.85;1.88;;;11.60;62.00;;;;;;5049920;28;20051;-90
2021/03/03 00:32:30;;;;;;;6.40;1.88;;;11.60;62.00;;;;;;5063770;28;20040;-89
2021/03/03 00:34:56;;;;;;;5.18;1.95;;;11.60;62.00;;;;;;5055977;28;20037;-90
2021/03/03 00:37:22;;;;;;;5.35;1.17;;;11.60;62.00;;;;;;5035120;28;20045;-89
2021/03/03 00:39:48;;;;;;;6.25;1.63;;;11.50;61.90;;;;;;5046010;28;20039;-89
2021/03/03 00:42:14;;;;;;;3.58;1.77;;;11.50;62.00;;;;;;5051865;28;20049;-90
2021/03/03 00:44:40;;;;;;;5.57;2.15;;;11.50;62.00;;;;;;5069045;28;20049;-90
2021/03/03 00:47:06;;;;;;;5.80;1.65;;;11.50;62.00;;;;;;5032514;28;20034;-89
2021/03/03 00:49:33;;;;;;;5.70;1.83;;;11.50;62.10;;;;;;5055089;28;20516;-89
2021/03/03 00:51:59;;;;;;;6.93;1.58;;;11.40;62.10;;;;;;5037883;28;20048;-88
2021/03/03 00:54:25;;;;;;;8.88;1.55;;;11.40;62.10;;;;;;5054648;28;20044;-89
2021/03/03 00:56:51;;;;;;;3.63;1.75;;;11.40;62.10;;;;;;5052720;28;20029;-89
2021/03/03 00:59:17;;;;;;;6.07;2.13;;;11.40;62.10;;;;;;5038766;28;20028;-90
2021/03/03 01:01:43;;;;;;;2.80;1.20;;;11.40;62.00;;;;;;5054955;28;20044;-88
2021/03/03 01:04:09;;;;;;;5.43;1.70;;;11.50;62.10;;;;;;5054623;28;20436;-90
2021/03/03 01:06:35;;;;;;;2.28;0.93;;;11.50;62.10;;;;;;5054949;28;20103;-89
2021/03/03 01:09:02;;;;;;;3.90;1.58;;;11.50;62.10;;;;;;5049015;28;20044;-90
2021/03/03 01:11:28;;;;;;;2.05;1.05;;;11.50;62.10;;;;;;5054995;28;20033;-89
2021/03/03 01:13:54;;;;;;;5.55;1.73;;;11.40;62.20;;;;;;5054897;28;20478;-88
2021/03/03 01:16:20;;;;;;;1.90;1.23;;;11.40;62.30;;;;;;5055062;28;20074;-89
2021/03/03 01:18:46;;;;;;;7.43;2.03;;;11.40;62.40;;;;;;5051712;28;20029;-89
2021/03/03 01:21:12;;;;;;;12.27;1.40;;;11.40;62.50;;;;;;5023359;28;20041;-89
2021/03/03 01:23:39;;;;;;;6.85;1.83;;;11.30;63.20;;;;;;5054481;28;20040;-89
2021/03/03 01:26:05;;;;;;;5.20;1.98;;;11.30;62.30;;;;;;5038021;28;20044;-90
2021/03/03 01:28:32;;;;;;;5.90;1.95;;;11.30;62.40;;;;;;5055858;28;20036;-89
2021/03/03 01:30:58;;;;;;;3.00;1.17;;;11.40;62.40;;;;;;5054135;28;20059;-89
2021/03/03 01:33:28;;;;;;;4.32;1.60;;;11.40;62.50;;;;;;5054011;28;20044;-89
2021/03/03 01:35:54;;;;;;;2.75;1.58;;;11.40;62.40;;;;;;5051642;28;20409;-89
2021/03/03 01:38:20;;;;;;;10.07;1.17;;;11.40;62.40;;;;;;5038121;28;20029;-89
2021/03/03 01:40:47;;;;;;;5.95;1.77;;;11.40;62.40;;;;;;5055688;28;20045;-89
2021/03/03 01:43:13;;;;;;;6.70;1.70;;;11.50;62.40;;;;;;5034807;28;20124;-89
2021/03/03 01:45:39;;;;;;;4.30;1.05;;;11.50;62.40;;;;;;5051210;28;20254;-90
2021/03/03 01:48:06;;;;;;;2.40;1.38;;;11.50;62.40;;;;;;5065778;28;20473;-89
2021/03/03 01:50:32;;;;;;;7.20;2.22;;;11.50;62.40;;;;;;5057707;28;20050;-89
2021/03/03 01:52:58;;;;;;;2.80;1.30;;;11.50;62.30;;;;;;5053775;28;20044;-90
2021/03/03 01:55:25;;;;;;;13.98;1.65;;;11.60;62.40;;;;;;5053854;28;20044;-87
2021/03/03 01:57:51;;;;;;;10.70;1.60;;;11.60;62.40;;;;;;5037545;28;20424;-89
2021/03/03 02:00:18;;;;;;;1.90;1.17;;;11.60;62.40;;;;;;5051136;28;20036;-89
2021/03/03 02:02:44;;;;;;;6.80;0.90;;;11.60;62.50;;;;;;5036100;28;20028;-89
2021/03/03 02:05:11;;;;;;;2.25;1.13;;;11.60;62.50;;;;;;5055532;28;20468;-89
2021/03/03 02:08:01;;;;;;;3.15;1.23;;;11.60;62.50;;;;;;5050355;28;20042;-88
2021/03/03 02:10:39;;;;;;;3.00;1.15;;;11.60;62.60;;;;;;5070412;28;20037;-89
2021/03/03 02:13:08;;;;;;;6.25;2.15;;;11.60;62.60;;;;;;5071015;28;20490;-89
2021/03/03 02:15:35;;;;;;;2.15;1.17;;;11.60;62.60;;;;;;5054195;28;20028;-89
2021/03/03 02:18:02;;;;;;;2.58;1.42;;;11.50;62.60;;;;;;5049656;28;20021;-89
2021/03/03 02:20:31;;;;;;;3.47;0.95;;;11.60;62.70;;;;;;5018652;28;20391;-89
2021/03/03 02:23:33;;;;;;;3.75;1.55;;;11.60;62.80;;;;;;5063388;28;20126;-88
2021/03/03 02:25:59;;;;;;;;;;;11.50;62.80;;;;;;5031646;28;20084;-89
2021/03/03 02:28:25;;;;;;;8.10;1.75;;;11.50;62.70;;;;;;5016344;28;19905;-90
2021/03/03 02:30:51;;;;;;;2.35;1.20;;;11.50;62.60;;;;;;5029771;28;20064;-90
2021/03/03 02:33:20;;;;;;;2.45;1.13;;;11.50;62.60;;;;;;5013718;28;20033;-89
2021/03/03 02:35:47;;;;;;;0.93;0.55;;;11.50;62.70;;;;;;5028267;28;20395;-89
2021/03/03 02:38:13;;;;;;;3.15;1.15;;;11.50;62.70;;;;;;5000532;28;20041;-90
2021/03/03 02:40:40;;;;;;;5.82;1.02;;;11.50;62.70;;;;;;5031985;28;20040;-89
2021/03/03 02:43:06;;;;;;;6.57;1.45;;;11.50;62.80;;;;;;5031525;28;20053;-89
2021/03/03 02:45:32;;;;;;;1.90;0.70;;;11.50;62.80;;;;;;5033202;28;20033;-90
2021/03/03 02:47:59;;;;;;;4.25;1.20;;;11.50;62.80;;;;;;5015245;28;20068;-89
2021/03/03 02:50:25;;;;;;;1.17;0.63;;;11.50;62.80;;;;;;5036452;28;20056;-90
2021/03/03 02:52:55;;;;;;;3.97;1.63;;;11.60;62.90;;;;;;5019349;28;20510;-89
2021/03/03 02:55:22;;;;;;;3.03;1.13;;;11.50;62.80;;;;;;5039159;28;20044;-90
2021/03/03 02:57:48;;;;;;;1.73;0.77;;;11.60;62.90;;;;;;5044844;28;20601;-90
2021/03/03 03:00:16;;;;;;;3.13;1.85;;;11.60;62.90;;;;;;5047767;28;20033;-89
2021/03/03 03:02:45;;;;;;;1.77;0.60;;;11.50;62.90;;;;;;5033234;28;20048;-89
2021/03/03 03:05:11;;;;;;;2.88;0.88;;;11.50;63.00;;;;;;5028834;28;20033;-89
2021/03/03 03:07:40;;;;;;;3.75;1.55;;;11.50;63.00;;;;;;5028985;28;20041;-89
2021/03/03 03:10:07;;;;;;;1.27;0.75;;;11.50;63.10;;;;;;5027637;28;20037;-89
2021/03/03 03:12:33;;;;;;;2.42;1.10;;;11.50;63.20;;;;;;5031357;28;20111;-89
2021/03/03 03:14:59;;;;;;;3.85;1.42;;;11.50;63.20;;;;;;5050681;28;20482;-89
2021/03/03 03:17:25;;;;;;;2.30;0.82;;;11.40;63.20;;;;;;5051283;28;20033;-89
2021/03/03 03:19:51;;;;;;;1.70;0.88;;;11.40;63.30;;;;;;5015742;28;20480;-90
2021/03/03 03:22:18;;;;;;;1.85;0.73;;;11.40;63.30;;;;;;5017751;28;20044;-90
2021/03/03 03:24:44;;;;;;;4.03;1.05;;;11.40;63.30;;;;;;5050658;28;20033;-90
2021/03/03 03:27:11;;;;;;;8.75;1.05;;;11.40;63.40;;;;;;5027526;28;20482;-90
2021/03/03 03:29:38;;;;;;;3.70;1.20;;;11.40;63.40;;;;;;5031114;28;20406;-89
2021/03/03 03:32:05;;;;;;;4.22;1.42;;;11.30;63.40;;;;;;5034339;28;20037;-89
2021/03/03 03:34:31;;;;;;;2.13;0.82;;;11.30;63.40;;;;;;5029062;28;20036;-89
2021/03/03 03:36:57;;;;;;;3.72;1.15;;;11.30;63.50;;;;;;5054952;28;20037;-89
2021/03/03 03:39:23;;;;;;;6.00;0.75;;;11.20;63.50;;;;;;5054795;28;20043;-89
2021/03/03 03:41:49;;;;;;;2.92;1.15;;;11.20;63.60;;;;;;5053550;28;20049;-89
2021/03/03 03:44:15;;;;;;;2.95;1.05;;;11.20;63.60;;;;;;5057157;28;20044;-89
2021/03/03 03:46:42;;;;;;;0.90;0.35;;;11.20;63.70;;;;;;5055614;28;20040;-89
2021/03/03 03:49:08;;;;;;;1.55;0.80;;;11.10;63.70;;;;;;5055516;28;20040;-89
2021/03/03 03:51:34;;;;;;;3.42;1.20;;;11.10;63.80;;;;;;5040015;28;20053;-89
2021/03/03 03:54:00;;;;;;;1.42;1.13;;;11.10;63.80;;;;;;5052740;28;20477;-89
2021/03/03 03:56:26;;;;;;;1.75;0.82;;;11.10;63.80;;;;;;5054950;28;20041;-89
2021/03/03 03:58:52;;;;;;;1.52;0.85;;;11.10;63.80;;;;;;5064041;28;20040;-89
2021/03/03 04:01:19;;;;;;;0.80;0.30;;;11.10;63.80;;;;;;5026653;28;20502;-89
2021/03/03 04:03:45;;;;;;;8.80;1.05;;;11.10;63.70;;;;;;5057077;28;20032;-89
2021/03/03 04:06:11;;;;;;;1.27;0.35;;;11.10;63.80;;;;;;5035668;28;20425;-89
2021/03/03 04:08:37;;;;;;;3.63;0.90;;;11.10;63.80;;;;;;5054969;28;20044;-89
2021/03/03 04:11:03;;;;;;;2.30;0.90;;;11.10;63.80;;;;;;5055820;28;20417;-89
2021/03/03 04:13:29;;;;;;;1.58;0.55;;;11.10;63.80;;;;;;5055392;28;20033;-89
2021/03/03 04:15:55;;;;;;;4.45;0.93;;;11.10;63.80;;;;;;5054869;28;20045;-89
2021/03/03 04:18:22;;;;;;;3.20;0.52;;;11.10;63.80;;;;;;5053424;28;20036;-89
2021/03/03 04:20:48;;;;;;;9.93;1.38;;;11.10;63.80;;;;;;5019782;28;20053;-89
2021/03/03 04:23:14;;;;;;;2.05;0.73;;;11.20;63.90;;;;;;5057230;28;20029;-89
2021/03/03 04:25:40;;;;;;;0.77;0.25;;;11.20;63.80;;;;;;5055472;28;20081;-89
2021/03/03 04:28:06;;;;;;;3.80;1.00;;;11.20;63.80;;;;;;5055621;28;20029;-89
2021/03/03 04:30:33;;;;;;;2.17;0.75;;;11.20;63.70;;;;;;5037582;28;20036;-89
2021/03/03 04:32:59;;;;;;;1.17;0.32;;;11.30;63.70;;;;;;5045386;28;20033;-89
2021/03/03 04:35:25;;;;;;;2.08;0.82;;;11.30;63.70;;;;;;5038909;28;20025;-89
2021/03/03 04:37:51;;;;;;;1.17;0.50;;;11.30;63.70;;;;;;5056612;28;20040;-89
2021/03/03 04:40:17;;;;;;;1.58;0.35;;;11.30;63.70;;;;;;5034954;28;20409;-90
2021/03/03 04:42:43;;;;;;;0.90;0.40;;;11.30;63.60;;;;;;5017934;28;20480;-91
2021/03/03 04:45:10;;;;;;;1.23;0.40;;;11.30;63.70;;;;;;5055107;28;20041;-91
2021/03/03 04:47:37;;;;;;;7.88;0.73;;;11.30;63.80;;;;;;5052098;28;20385;-87
2021/03/03 04:50:04;;;;;;;0.98;0.38;;;11.20;64.60;;;;;;5056065;28;20076;-87
2021/03/03 04:52:30;;;;;;;1.50;0.55;;;11.20;63.80;;;;;;5054769;28;20099;-86
2021/03/03 04:54:56;;;;;;;2.17;0.52;;;11.20;63.90;;;;;;5056023;28;20432;-87
2021/03/03 04:57:22;;;;;;;1.40;0.65;;;11.20;63.90;;;;;;5054552;28;20378;-87
2021/03/03 04:59:48;;;;;;;1.50;0.55;;;11.20;63.90;;;;;;5058643;28;20033;-87
2021/03/03 05:02:14;;;;;;;1.30;0.60;;;11.10;64.00;;;;;;5064540;28;20401;-86
2021/03/03 05:04:40;;;;;;;3.22;0.93;;;11.10;64.10;;;;;;5057419;28;20043;-88
2021/03/03 05:07:06;;;;;;;13.05;0.90;;;11.10;64.20;;;;;;5055844;28;20040;-86
2021/03/03 05:09:32;;;;;;;1.70;0.90;;;11.00;64.80;;;;;;5044814;28;20051;-86
2021/03/03 05:11:59;;;;;;;1.40;0.57;;;11.00;64.10;;;;;;5051665;28;20508;-86
2021/03/03 05:14:25;;;;;;;4.43;0.85;;;11.10;64.20;;;;;;5058894;28;20028;-85
2021/03/03 05:16:51;;;;;;;10.48;0.68;;;11.10;64.10;;;;;;5056289;28;20516;-88
2021/03/03 05:19:17;;;;;;;4.45;0.75;;;11.00;64.10;;;;;;5053743;28;20029;-88
2021/03/03 05:21:43;;;;;;;3.38;1.17;;;11.00;64.10;;;;;;5034294;28;20046;-87
2021/03/03 05:24:09;;;;;;;2.60;0.57;;;11.10;64.20;;;;;;5049802;28;20028;-85
2021/03/03 05:26:35;;;;;;;1.38;0.70;;;11.00;64.20;;;;;;5054715;28;20040;-89
2021/03/03 05:29:01;;;;;;;3.13;1.02;;;11.00;64.20;;;;;;5065416;28;20025;-89
2021/03/03 05:31:27;;;;;;;1.13;0.63;;;11.00;64.30;;;;;;5060465;28;20052;-89
2021/03/03 05:33:53;;;;;;;4.43;1.25;;;11.00;64.30;;;;;;5053822;28;20029;-87
2021/03/03 05:36:19;;;;;;;2.88;1.38;;;11.00;64.40;;;;;;5029949;28;20040;-88
2021/03/03 05:38:47;;;;;;;3.75;0.98;;;11.00;64.40;;;;;;5059156;28;20035;-90
2021/03/03 05:41:13;;;;;;;0.70;0.32;;;11.00;64.40;;;;;;5055368;28;20037;-90
2021/03/03 05:43:39;;;;;;;3.42;0.63;;;11.00;64.40;;;;;;5033514;28;20037;-90
2021/03/03 05:46:05;;;;;;;5.28;0.98;;;11.00;64.60;;;;;;5047298;28;20044;-90
2021/03/03 05:48:42;;;;;;;5.45;1.02;;;11.00;64.50;;;;;;5028329;28;20048;-90
2021/03/03 05:51:09;;;;;;;1.20;0.38;;;11.00;64.60;;;;;;5045348;28;20052;-90
2021/03/03 05:53:35;;;;;;;0.98;0.55;;;11.00;64.60;;;;;;5021144;28;20033;-90
2021/03/03 05:56:03;;;;;;;10.70;1.58;;;10.90;64.60;;;;;;5018001;28;20045;-90
2021/03/03 05:58:33;;;;;;;1.67;0.63;;;10.90;64.60;;;;;;5053432;28;20036;-90
2021/03/03 06:01:00;;;;;;;1.50;0.57;;;10.90;64.70;;;;;;5048241;28;20029;-90
2021/03/03 06:03:26;;;;;;;2.58;0.90;;;10.90;64.80;;;;;;5048620;28;20401;-90
2021/03/03 06:05:53;;;;;;;1.65;1.05;;;10.80;64.80;;;;;;5031647;28;20047;-90
2021/03/03 06:08:21;;;;;;;1.23;0.55;;;10.80;64.90;;;;;;5038292;28;20477;-91
2021/03/03 06:10:47;;;;;;;3.70;1.08;;;10.80;64.90;;;;;;5055115;28;20398;-91
2021/03/03 06:13:14;;;;;;;16.60;1.13;;;10.80;65.70;;;;;;5033652;28;20045;-91
2021/03/03 06:15:40;;;;;;;0.85;0.45;;;10.80;65.00;;;;;;5006850;28;20040;-90
2021/03/03 06:18:07;;;;;;;1.88;0.50;;;10.80;65.10;;;;;;5047692;28;20497;-89
2021/03/03 06:20:39;;;;;;;1.23;0.75;;;10.70;65.10;;;;;;5024034;28;20041;-89
2021/03/03 06:23:24;;;;;;;4.00;1.60;;;10.70;65.10;;;;;;5042368;28;20033;-89
2021/03/03 06:25:56;;;;;;;6.15;1.02;;;10.70;65.20;;;;;;5042866;28;20056;-89
2021/03/03 06:28:32;;;;;;;10.57;1.17;;;10.70;65.10;;;;;;5058758;28;20048;-89
2021/03/03 06:30:58;;;;;;;0.47;0.10;;;10.70;65.10;;;;;;5070118;28;20044;-89
2021/03/03 06:33:25;;;;;;;7.25;1.02;;;10.70;65.10;;;;;;5065506;28;20371;-89
2021/03/03 06:35:51;;;;;;;4.80;1.17;;;10.70;65.10;;;;;;5053149;28;20040;-89
2021/03/03 06:38:28;;;;;;;2.75;0.88;;;10.70;65.20;;;;;;5037825;28;20059;-89
2021/03/03 06:40:56;;;;;;;6.90;1.48;;;10.70;65.20;;;;;;5057271;28;20033;-89
2021/03/03 06:43:24;;;;;;;2.20;0.63;;;10.70;65.30;;;;;;5053586;28;20049;-89
2021/03/03 06:45:51;;;;;;;1.23;0.65;;;10.70;65.30;;;;;;5073637;28;20028;-90
2021/03/03 06:48:35;;;;;;;4.43;1.17;;;10.70;65.30;;;;;;5054498;28;20048;-89
2021/03/03 06:51:25;;;;;;;2.10;0.70;;;10.70;65.40;;;;;;5036522;28;20056;-89
2021/03/03 06:53:51;;;;;;;3.75;0.90;;;10.60;65.40;;;;;;5067938;28;20040;-89
2021/03/03 06:56:40;;;;;;;2.72;0.95;;;10.60;65.40;;;;;;5037364;28;20048;-89
2021/03/03 06:59:25;;;;;;;3.00;1.05;;;10.60;65.50;;;;;;5056306;28;20037;-88
2021/03/03 07:01:55;;;;;;;2.33;0.98;;;10.60;65.40;;;;;;5038372;28;20044;-89
2021/03/03 07:04:27;;;;;;;5.20;1.33;;;10.60;65.50;;;;;;5051227;28;20029;-89
2021/03/03 07:07:00;;;;;;;5.65;1.33;;;10.60;65.50;;;;;;5058378;28;20025;-89
2021/03/03 07:09:58;;;;;;;5.57;1.40;;;10.60;65.50;;;;;;5039116;28;20032;-89
2021/03/03 07:12:29;;;;;;;3.13;0.90;;;10.60;65.50;;;;;;5029066;28;20048;-88
2021/03/03 07:14:58;;;;;;;2.92;1.33;;;10.60;65.50;;;;;;5037381;28;20025;-89
2021/03/03 07:17:45;;;;;;;1.85;0.73;;;10.70;65.50;;;;;;5058057;28;20032;-90
2021/03/03 07:20:17;;;;;;;2.80;0.82;;;10.70;65.50;;;;;;5054999;28;20044;-90
2021/03/03 07:22:47;;;;;;;1.23;0.50;;;10.70;65.50;;;;;;5056016;28;20032;-94
2021/03/03 07:25:15;;;;;;;3.17;0.70;;;10.80;65.50;;;;;;5024248;28;20033;-92
2021/03/03 07:27:42;;;;;;;2.78;1.00;;;10.90;65.40;;;;;;5059162;28;20032;-92
2021/03/03 07:30:09;;;;;;;4.20;1.27;;;11.10;65.30;;;;;;5051643;28;20080;-92
2021/03/03 07:32:35;;;;;;;1.73;0.50;;;11.40;65.00;;;;;;5054401;28;20032;-93
2021/03/03 07:35:02;;;;;;;4.88;1.10;;;11.70;64.60;;;;;;5034096;28;20029;-92
2021/03/03 07:37:38;;;;;;;2.45;1.02;;;12.00;64.70;;;;;;5050381;28;20385;-91
2021/03/03 07:40:06;;;;;;;4.78;1.40;;;12.20;64.80;;;;;;5050282;28;20029;-89
2021/03/03 07:42:32;;;;;;;1.83;0.45;;;12.40;64.90;;;;;;5031754;28;20044;-89
2021/03/03 07:45:02;;;;;;;1.75;0.73;;;12.60;65.00;;;;;;5017511;28;20042;-93
2021/03/03 07:47:30;;;;;;;11.73;0.73;;;12.70;64.80;;;;;;5031123;28;20076;-90
2021/03/03 07:50:03;;;;;;;1.42;0.65;;;12.90;65.00;;;;;;5031325;28;20029;-93
2021/03/03 07:52:29;;;;;;;0.80;0.55;;;13.00;65.30;;;;;;5050624;28;20041;-92
2021/03/03 07:54:57;;;;;;;2.25;0.77;;;13.10;65.40;;;;;;5034113;28;20056;-91
2021/03/03 07:57:23;;;;;;;3.28;1.17;;;13.20;66.20;;;;;;5050765;28;20040;-90
2021/03/03 07:59:49;;;;;;;3.50;0.98;;;13.30;65.50;;;;;;5050629;28;20021;-92
2021/03/03 08:02:15;;;;;;;7.80;0.55;;;13.50;65.60;;;;;;5063784;28;20474;-91
2021/03/03 08:04:42;;;;;;;6.47;1.13;;;13.60;65.50;;;;;;5064734;28;20037;-91
2021/03/03 08:07:22;;;;;;;1.58;0.65;;;13.70;65.50;;;;;;5047202;28;20044;-85
2021/03/03 08:10:22;;;;;;;3.08;1.30;;;13.70;65.30;;;;;;5063441;28;20028;-94
2021/03/03 08:13:07;;;;;;;5.72;0.65;;;13.60;65.40;;;;;;5060221;28;20393;-93
2021/03/03 08:15:34;;;;;;;3.90;1.50;;;13.40;65.60;;;;;;5051180;28;20040;-90
2021/03/03 08:18:20;;;;;;;1.77;0.88;;;13.30;65.70;;;;;;5053447;28;20040;-91
2021/03/03 08:20:48;;;;;;;1.65;0.57;;;13.20;66.00;;;;;;5030584;28;20397;-90
2021/03/03 08:23:33;;;;;;;2.58;1.00;;;13.00;66.00;;;;;;5032851;28;20025;-87
2021/03/03 08:26:12;;;;;;;1.98;0.68;;;13.00;66.10;;;;;;5052406;28;20029;-87
2021/03/03 08:28:39;;;;;;;2.30;0.45;;;13.00;66.10;;;;;;5052506;28;20044;-85
2021/03/03 08:31:09;;;;;;;1.50;0.90;;;13.00;66.10;;;;;;5049119;28;20064;-89
2021/03/03 08:33:38;;;;;;;0.93;0.45;;;12.90;66.10;;;;;;5051544;28;20025;-89
2021/03/03 08:36:05;;;;;;;0.75;0.45;;;12.90;66.00;;;;;;5043105;28;20039;-87
2021/03/03 08:38:31;;;;;;;0.77;0.30;;;12.90;66.00;;;;;;5026928;28;20028;-85
2021/03/03 08:41:16;;;;;;;1.88;0.73;;;12.90;66.00;;;;;;5014082;28;20431;-88
2021/03/03 08:43:46;;;;;;;1.75;0.70;;;12.70;66.10;;;;;;5049444;28;20033;-89
2021/03/03 08:46:21;;;;;;;2.00;0.60;;;12.60;66.30;;;;;;5020357;28;20025;-87
2021/03/03 08:48:53;;;;;;;1.05;0.35;;;12.50;66.60;;;;;;5051679;28;20386;-87
2021/03/03 08:51:38;;;;;;;1.63;0.65;;;12.40;66.80;;;;;;5053502;28;20043;-86
2021/03/03 08:54:05;;;;;;;0.93;0.57;;;12.20;66.90;;;;;;5035991;28;20028;-88
2021/03/03 08:56:44;;;;;;;2.58;0.93;;;12.20;67.00;;;;;;5047032;28;20025;-85
2021/03/03 08:59:13;;;;;;;6.20;1.60;;;12.20;67.10;;;;;;5051280;28;20056;-89
2021/03/03 09:01:58;;;;;;;1.77;0.63;;;12.20;66.90;;;;;;5028216;28;20532;-87
2021/03/03 09:04:30;;;;;;;2.95;1.23;;;12.30;66.80;;;;;;5051703;28;20028;-87
2021/03/03 09:07:07;;;;;;;3.83;1.58;;;12.40;66.50;;;;;;5051426;28;20044;-84
2021/03/03 09:09:37;;;;;;;7.90;1.27;;;12.60;66.20;;;;;;5033125;28;20048;-85
2021/03/03 09:12:08;;;;;;;2.33;0.77;;;12.80;65.90;;;;;;5034555;28;20047;-86
2021/03/03 09:14:35;;;;;;;1.27;0.43;;;12.80;65.70;;;;;;5034405;28;20033;-87
2021/03/03 09:17:05;;;;;;;1.95;0.70;;;12.90;65.80;;;;;;5033512;28;20029;-89
2021/03/03 09:19:32;;;;;;;2.80;1.07;;;12.80;66.00;;;;;;5033423;28;20037;-89
2021/03/03 09:21:58;;;;;;;1.98;0.77;;;12.80;66.20;;;;;;5049075;28;20298;-86
2021/03/03 09:24:24;;;;;;;3.03;1.42;;;12.80;66.20;;;;;;5050064;28;20033;-89
2021/03/03 09:27:06;;;;;;;5.50;1.38;;;12.90;66.10;;;;;;5050790;28;20029;-90
2021/03/03 09:29:33;;;;;;;2.75;1.48;;;13.00;66.00;;;;;;5034358;28;20025;-90
2021/03/03 09:32:10;;;;;;;4.32;0.80;;;13.10;65.90;;;;;;5033169;28;20055;-90
2021/03/03 09:34:43;;;;;;;12.18;0.90;;;13.10;65.80;;;;;;5050218;28;20048;-90
2021/03/03 09:37:09;;;;;;;2.55;0.63;;;13.10;65.80;;;;;;5053945;28;20029;-90
2021/03/03 09:39:35;;;;;;;3.90;0.82;;;13.10;65.80;;;;;;5054576;28;20028;-90
2021/03/03 09:42:09;;;;;;;4.85;1.02;;;13.10;65.90;;;;;;5017419;28;20041;-89
2021/03/03 09:44:50;;;;;;;2.00;0.82;;;13.10;66.00;;;;;;5063295;28;20466;-88
2021/03/03 09:47:33;;;;;;;4.30;0.88;;;13.20;66.10;;;;;;5051987;28;20407;-86
2021/03/03 09:50:10;;;;;;;1.67;0.93;;;13.10;66.20;;;;;;5064219;28;20048;-83
2021/03/03 09:52:47;;;;;;;1.80;0.47;;;13.00;66.50;;;;;;5049803;28;20029;-81
2021/03/03 09:55:14;;;;;;;2.90;1.08;;;12.90;66.70;;;;;;5057098;28;20032;-83
2021/03/03 09:57:41;;;;;;;3.05;1.73;;;12.80;67.20;;;;;;5058990;28;20044;-82
2021/03/03 10:00:09;;;;;;;4.18;1.15;;;12.70;67.40;;;;;;5059292;28;20025;-82
2021/03/03 10:02:35;;;;;;;4.40;0.88;;;12.70;67.40;;;;;;5073814;28;20051;-82
2021/03/03 10:05:02;;;;;;;2.90;1.38;;;12.70;67.40;;;;;;5039499;28;20036;-82
2021/03/03 10:07:28;;;;;;;5.70;1.20;;;12.80;67.30;;;;;;5046028;28;20171;-82
2021/03/03 10:09:56;;;;;;;4.88;1.98;;;12.90;67.00;;;;;;5062598;28;20028;-83
2021/03/03 10:12:23;;;;;;;4.78;1.15;;;13.10;66.80;;;;;;5039467;28;20067;-82
2021/03/03 10:15:08;;;;;;;2.35;1.13;;;13.20;66.60;;;;;;5054699;28;20048;-84
2021/03/03 10:17:48;;;;;;;5.85;1.35;;;13.30;66.50;;;;;;5066670;28;20500;-83
2021/03/03 10:20:40;;;;;;;6.00;1.63;;;13.40;66.40;;;;;;5051065;28;20029;-83
2021/03/03 10:23:11;;;;;;;2.38;1.10;;;13.50;66.20;;;;;;5059399;28;20024;-82
2021/03/03 10:25:38;;;;;;;3.80;1.40;;;13.60;65.90;;;;;;5057558;28;20025;-83
2021/03/03 10:28:07;;;;;;;2.38;0.90;;;13.80;65.80;;;;;;5059206;28;20037;-85
2021/03/03 10:30:34;;;;;;;6.95;1.50;;;13.80;65.70;;;;;;5056056;28;20029;-85
2021/03/03 10:33:00;;;;;;;6.10;1.52;;;13.90;65.70;;;;;;5036753;28;20037;-85
2021/03/03 10:35:29;;;;;;;4.35;1.80;;;14.00;65.50;;;;;;5069601;28;20389;-87
2021/03/03 10:38:11;;;;;;;2.25;0.77;;;14.30;65.30;;;;;;5040810;28;20048;-86
2021/03/03 10:40:39;;;;;;;2.30;1.05;;;14.50;65.00;;;;;;5057765;28;20029;-85
2021/03/03 10:43:16;;;;;;;1.38;0.55;;;14.60;64.70;;;;;;5057427;28;20049;-84
2021/03/03 10:45:42;;;;;;;3.63;1.33;;;14.80;64.70;;;;;;5056762;28;20393;-83
2021/03/03 10:48:09;;;;;;;2.88;1.15;;;14.90;64.40;;;;;;5053623;28;20017;-83
2021/03/03 10:50:38;;;;;;;2.90;1.40;;;14.90;64.40;;;;;;5056416;28;20044;-81
2021/03/03 10:53:04;;;;;;;5.28;1.73;;;14.90;64.40;;;;;;5040638;28;20040;-82
2021/03/03 10:55:37;;;;;;;7.32;1.70;;;15.00;64.40;;;;;;5057139;28;20045;-84
2021/03/03 10:58:11;;;;;;;3.45;1.75;;;15.10;64.30;;;;;;5057233;28;20039;-86
2021/03/03 11:00:53;;;;;;;4.10;1.55;;;15.20;64.30;;;;;;5051868;28;20048;-93
2021/03/03 11:03:20;;;;;;;3.22;1.05;;;15.30;64.30;;;;;;5053908;28;20414;-89
2021/03/03 11:05:53;;;;;;;10.45;1.67;;;15.40;64.30;;;;;;5037658;28;20453;-90
2021/03/03 11:08:19;;;;;;;1.52;0.63;;;15.40;64.10;;;;;;5055798;28;20466;-88
2021/03/03 11:10:45;;;;;;;1.73;1.08;;;15.50;64.10;;;;;;5056847;28;20029;-88
2021/03/03 11:13:12;;;;;;;3.47;1.40;;;15.50;64.10;;;;;;5036294;28;20415;-88
2021/03/03 11:15:41;;;;;;;2.40;0.63;;;15.60;64.00;;;;;;5046051;28;20028;-87
2021/03/03 11:18:11;;;;;;;12.80;2.63;;;15.80;64.00;;;;;;5052094;28;20092;-89
2021/03/03 11:20:37;;;;;;;2.60;1.02;;;16.00;63.70;;;;;;5022357;28;20040;-87
2021/03/03 11:23:04;;;;;;;10.35;1.15;;;16.10;63.40;;;;;;5036956;28;20506;-89
2021/03/03 11:25:31;;;;;;;7.82;1.38;;;16.20;63.30;;;;;;5039801;28;20512;-87
2021/03/03 11:27:57;;;;;;;8.73;2.30;;;16.30;63.20;;;;;;5049733;28;20509;-86
2021/03/03 11:30:23;;;;;;;3.40;1.48;;;16.40;63.10;;;;;;5050019;28;20033;-88
2021/03/03 11:32:51;;;;;;;4.25;1.80;;;16.60;63.00;;;;;;5050909;28;20040;-88
2021/03/03 11:35:18;;;;;;;4.60;1.13;;;16.80;62.60;;;;;;5063894;28;20025;-89
2021/03/03 11:37:44;;;;;;;6.13;1.38;;;17.00;62.40;;;;;;5034344;28;20041;-89
2021/03/03 11:40:11;;;;;;;6.65;1.75;;;17.00;62.20;;;;;;5050706;28;20474;-87
2021/03/03 11:42:37;;;;;;;2.63;1.02;;;17.10;62.30;;;;;;5051331;28;20064;-86
2021/03/03 11:45:05;;;;;;;15.38;2.83;;;17.10;62.30;;;;;;5050222;28;20028;-84
2021/03/03 11:47:32;;;;;;;3.42;1.50;;;17.10;62.40;;;;;;5045774;28;20037;-85
2021/03/03 11:49:58;;;;;;;6.95;1.80;;;17.10;62.50;;;;;;5031843;28;20040;-84
2021/03/03 11:52:25;;;;;;;5.13;1.30;;;17.10;62.60;;;;;;5051478;28;20409;-87
2021/03/03 11:54:51;;;;;;;7.00;1.17;;;17.10;62.70;;;;;;5028216;28;20033;-85
2021/03/03 11:57:17;;;;;;;8.00;1.25;;;17.00;62.70;;;;;;5038246;28;20039;-85
2021/03/03 11:59:43;;;;;;;9.18;1.38;;;17.00;62.80;;;;;;5034423;28;20044;-86
2021/03/03 12:02:09;;;;;;;3.47;1.05;;;17.00;62.90;;;;;;5048648;28;20025;-85
2021/03/03 12:04:35;;;;;;;3.63;1.33;;;16.90;63.00;;;;;;5033975;28;20366;-85
2021/03/03 12:07:01;;;;;;;3.42;1.00;;;16.80;63.30;;;;;;5054971;28;20044;-85
2021/03/03 12:09:28;;;;;;;4.13;1.50;;;16.70;63.40;;;;;;5038000;28;20115;-85
2021/03/03 12:11:54;;;;;;;2.50;1.05;;;16.70;63.40;;;;;;5058397;28;20505;-85
2021/03/03 12:14:20;;;;;;;2.13;0.93;;;16.90;63.20;;;;;;5055700;28;20474;-85
2021/03/03 12:16:47;;;;;;;4.03;1.65;;;17.10;62.90;;;;;;5054133;28;20048;-86
2021/03/03 12:19:13;;;;;;;3.85;1.52;;;17.30;62.40;;;;;;5056496;28;20021;-85
2021/03/03 12:21:40;;;;;;;4.65;1.48;;;17.50;61.90;;;;;;5035815;28;20051;-86
2021/03/03 12:24:06;;;;;;;1.63;0.77;;;17.70;61.70;;;;;;5050574;28;20406;-86
2021/03/03 12:26:32;;;;;;;4.25;1.30;;;17.80;61.40;;;;;;5055348;28;20036;-85
2021/03/03 12:28:58;;;;;;;7.88;1.15;;;17.80;61.30;;;;;;5057077;28;20036;-85
2021/03/03 12:31:24;;;;;;;3.63;1.27;;;17.80;61.20;;;;;;5060351;28;20056;-88
2021/03/03 12:33:50;;;;;;;2.85;1.17;;;17.90;61.20;;;;;;5054429;28;20032;-85
2021/03/03 12:36:16;;;;;;;1.35;0.70;;;17.90;61.20;;;;;;5035517;28;20397;-85
2021/03/03 12:38:42;;;;;;;2.88;0.80;;;18.10;61.00;;;;;;5036186;28;20041;-83
2021/03/03 12:41:09;;;;;;;2.42;0.95;;;18.20;60.80;;;;;;5055007;28;20036;-84
2021/03/03 12:43:35;;;;;;;6.50;0.93;;;18.20;60.60;;;;;;5055144;28;20036;-87
2021/03/03 12:46:01;;;;;;;3.88;1.23;;;18.20;60.70;;;;;;5055266;28;20454;-88
2021/03/03 12:48:27;;;;;;;7.60;1.63;;;18.10;60.60;;;;;;5054403;28;20024;-85
2021/03/03 12:50:53;;;;;;;4.55;1.15;;;18.00;60.90;;;;;;5051696;28;20098;-83
2021/03/03 12:53:19;;;;;;;2.38;1.05;;;18.10;61.00;;;;;;5038669;28;20049;-83